Aviation Digital Data Service (ADDS)

Output produced by METARs form (0212 UTC 11 December 2016)
found at http://aviationweather.gov/adds/metars/
 
KLBT 102320Z 1100/1124 00000KT P6SM SKC 
     FM111200 08006KT P6SM SCT030